Time;durP1;ratioP1;P1;durP2;ratioP2;P2;SDS_P1;SDS_P2;PMS_P1;PMS_P2;Temp;Humidity;BMP_temperature;BMP_pressure;BME280_temperature;BME280_humidity;BME280_pressure;Samples;Min_cycle;Max_cycle;Signal;HPM_P1;HPM_P2
2022/01/24 00:02:19;;;;;;;19.83;12.70;;;5.90;99.90;;;;;;4993557;28;20456;-61
2022/01/24 00:04:47;;;;;;;20.95;14.20;;;6.20;99.90;;;;;;5010738;28;20033;-62
2022/01/24 00:07:17;;;;;;;18.48;12.18;;;6.10;99.90;;;;;;4994488;28;20080;-62
2022/01/24 00:09:43;;;;;;;20.35;12.70;;;6.10;99.90;;;;;;4993456;28;20050;-61
2022/01/24 00:12:26;;;;;;;18.77;12.88;;;5.80;99.90;;;;;;4997614;28;20054;-62
2022/01/24 00:27:56;;;;;;;17.80;11.43;;;6.00;99.90;;;;;;5012774;28;20042;-61
2022/01/24 00:30:22;;;;;;;18.55;12.68;;;6.30;99.90;;;;;;5030611;28;20053;-62
2022/01/24 00:32:48;;;;;;;18.92;11.82;;;6.00;99.90;;;;;;5030657;28;20076;-62
2022/01/24 00:35:13;;;;;;;18.92;13.13;;;6.00;99.90;;;;;;5014031;28;20478;-62
2022/01/24 00:37:39;;;;;;;16.15;10.95;;;6.00;99.90;;;;;;5012163;28;20052;-61
2022/01/24 00:40:06;;;;;;;14.75;9.93;;;6.00;99.90;;;;;;5010845;28;20052;-61
2022/01/24 00:45:16;;;;;;;16.80;10.40;;;6.00;99.90;;;;;;4992559;28;20436;-61
2022/01/24 00:48:09;;;;;;;16.23;10.45;;;6.00;99.90;;;;;;4976907;28;20052;-61
2022/01/24 00:56:04;;;;;;;14.75;9.65;;;5.90;99.90;;;;;;4993038;28;20107;-61
2022/01/24 00:58:29;;;;;;;18.90;10.63;;;5.90;99.90;;;;;;4993259;28;20085;-61
2022/01/24 01:00:55;;;;;;;14.02;9.20;;;5.90;99.90;;;;;;5010583;28;20453;-61
2022/01/24 01:03:21;;;;;;;14.70;9.10;;;6.00;99.90;;;;;;4993566;28;20443;-61
2022/01/24 01:06:07;;;;;;;15.13;9.40;;;5.90;99.90;;;;;;5011095;28;20102;-61
2022/01/24 01:19:33;;;;;;;11.93;7.63;;;5.80;99.90;;;;;;4992713;28;20129;-62
2022/01/24 01:21:58;;;;;;;12.27;7.63;;;5.90;99.90;;;;;;4976525;28;20164;-61
2022/01/24 01:24:25;;;;;;;12.75;7.57;;;5.90;99.90;;;;;;4993272;28;20443;-61
2022/01/24 01:26:58;;;;;;;12.52;8.27;;;5.80;99.90;;;;;;4992065;28;20513;-62
2022/01/24 01:29:31;;;;;;;12.65;8.40;;;5.80;99.90;;;;;;4993513;28;20046;-62
2022/01/24 01:32:12;;;;;;;10.77;6.90;;;6.00;99.90;;;;;;4992493;28;20042;-61
2022/01/24 01:35:07;;;;;;;13.30;7.03;;;5.90;99.90;;;;;;4993562;28;20061;-61
2022/01/24 01:56:24;;;;;;;11.07;6.72;;;5.80;99.90;;;;;;5012504;28;20050;-62
2022/01/24 01:58:50;;;;;;;9.38;6.55;;;5.70;99.90;;;;;;5011558;28;20593;-61
2022/01/24 02:01:16;;;;;;;9.18;6.13;;;5.70;99.90;;;;;;5009771;28;20428;-62
2022/01/24 02:03:41;;;;;;;11.77;6.80;;;5.80;99.90;;;;;;5011729;28;20132;-62
2022/01/24 02:06:07;;;;;;;9.50;5.85;;;5.70;99.90;;;;;;5029946;28;20071;-62
2022/01/24 02:08:33;;;;;;;9.73;6.22;;;5.70;99.90;;;;;;5029176;28;20087;-62
2022/01/24 02:11:00;;;;;;;9.60;5.75;;;5.70;99.90;;;;;;5011752;28;20106;-61
2022/01/24 02:13:27;;;;;;;8.95;6.13;;;5.70;99.90;;;;;;5029783;28;20033;-62
2022/01/24 02:16:10;;;;;;;9.80;6.13;;;5.70;99.90;;;;;;5000303;28;20120;-62
2022/01/24 02:19:08;;;;;;;9.43;6.15;;;5.70;99.90;;;;;;4992525;28;20132;-61
2022/01/24 02:24:14;;;;;;;9.10;5.90;;;5.60;99.90;;;;;;4993739;28;20072;-62
2022/01/24 02:26:40;;;;;;;11.63;6.13;;;5.70;99.90;;;;;;5009275;28;20081;-61
2022/01/24 02:29:25;;;;;;;10.43;6.28;;;5.70;99.90;;;;;;4981934;28;20040;-62
2022/01/24 02:31:52;;;;;;;8.50;5.28;;;5.70;99.90;;;;;;5011497;28;20037;-62
2022/01/24 02:34:27;;;;;;;9.70;5.53;;;5.60;99.90;;;;;;4995961;28;20057;-62
2022/01/24 02:36:55;;;;;;;8.98;5.40;;;5.60;99.90;;;;;;5010868;28;20052;-62
2022/01/24 02:39:45;;;;;;;9.75;5.47;;;6.40;99.90;;;;;;4995659;28;20037;-61
2022/01/24 02:53:24;;;;;;;8.38;5.60;;;5.60;99.90;;;;;;5011468;28;20090;-62
2022/01/24 02:55:50;;;;;;;9.27;5.97;;;5.60;99.90;;;;;;5011119;28;20037;-61
2022/01/24 02:58:17;;;;;;;8.88;5.72;;;5.70;99.90;;;;;;5011893;28;20038;-61
2022/01/24 03:00:44;;;;;;;9.30;5.70;;;5.50;99.90;;;;;;4991312;28;20046;-61
2022/01/24 03:03:10;;;;;;;8.45;5.70;;;5.60;99.90;;;;;;4992262;28;20046;-61
2022/01/24 03:05:36;;;;;;;11.48;6.82;;;5.60;99.90;;;;;;4991410;28;20057;-61
2022/01/24 03:08:02;;;;;;;8.82;6.28;;;5.60;99.90;;;;;;4989019;28;20486;-61
2022/01/24 03:10:35;;;;;;;10.18;6.00;;;5.60;99.90;;;;;;5009414;28;20038;-61
2022/01/24 03:15:47;;;;;;;10.80;6.13;;;5.60;99.90;;;;;;4991272;28;20510;-61
2022/01/24 03:18:13;;;;;;;10.02;6.55;;;5.60;99.90;;;;;;4991072;28;20121;-61
2022/01/24 03:20:39;;;;;;;10.00;5.53;;;5.60;99.90;;;;;;4975108;28;20129;-62
2022/01/24 03:23:05;;;;;;;10.20;6.60;;;5.60;99.90;;;;;;4998827;28;20050;-62
2022/01/24 03:25:31;;;;;;;10.73;5.97;;;5.70;99.90;;;;;;5010310;28;20037;-61
2022/01/24 03:27:57;;;;;;;11.10;6.18;;;5.60;99.90;;;;;;5010972;28;20042;-61
2022/01/24 03:30:23;;;;;;;10.40;6.93;;;5.60;99.90;;;;;;5011074;28;20636;-61
2022/01/24 03:32:49;;;;;;;9.63;6.25;;;5.40;99.90;;;;;;5010226;28;20053;-61
2022/01/24 03:35:15;;;;;;;9.85;5.95;;;5.50;99.90;;;;;;5011226;28;20103;-61
2022/01/24 03:37:41;;;;;;;9.13;6.15;;;5.50;99.90;;;;;;5009835;28;20052;-61
2022/01/24 03:40:07;;;;;;;9.80;6.15;;;5.90;99.90;;;;;;5028228;28;20038;-61
2022/01/24 03:42:33;;;;;;;10.48;6.03;;;5.60;99.90;;;;;;5032038;28;20045;-61
2022/01/24 03:45:03;;;;;;;9.77;5.65;;;5.40;99.90;;;;;;5014164;28;20045;-61
2022/01/24 03:50:01;;;;;;;10.00;5.97;;;5.50;99.90;;;;;;5013356;28;20078;-61
2022/01/24 03:52:30;;;;;;;9.88;6.22;;;5.50;99.90;;;;;;4995978;28;20058;-61
2022/01/24 03:54:56;;;;;;;9.70;6.43;;;5.10;99.90;;;;;;5011006;28;20402;-61
2022/01/24 03:57:23;;;;;;;9.75;6.15;;;5.50;99.90;;;;;;4995132;28;20060;-61
2022/01/24 03:59:49;;;;;;;9.65;6.10;;;5.50;99.90;;;;;;4994190;28;20084;-62
2022/01/24 04:02:16;;;;;;;10.02;7.03;;;5.50;99.90;;;;;;5011209;28;20381;-61
2022/01/24 04:04:42;;;;;;;11.77;7.00;;;5.50;99.90;;;;;;4994264;28;20034;-61
2022/01/24 04:07:08;;;;;;;10.65;6.03;;;5.50;99.90;;;;;;5011133;28;20466;-61
2022/01/24 04:09:35;;;;;;;9.43;5.32;;;5.50;99.90;;;;;;4997815;28;20488;-61
2022/01/24 04:12:01;;;;;;;10.82;7.00;;;5.50;99.90;;;;;;5031241;28;20049;-61
2022/01/24 04:14:41;;;;;;;10.02;6.18;;;5.50;99.90;;;;;;5013638;28;20067;-62
2022/01/24 04:22:15;;;;;;;10.93;7.13;;;5.50;99.90;;;;;;4993476;28;20054;-61
2022/01/24 04:24:42;;;;;;;11.98;6.97;;;5.50;99.90;;;;;;4993478;28;20050;-61
2022/01/24 04:27:09;;;;;;;9.65;6.47;;;5.50;99.90;;;;;;5011393;28;20479;-62
2022/01/24 04:29:35;;;;;;;10.95;6.60;;;5.50;99.90;;;;;;4993448;28;20048;-62
2022/01/24 04:32:02;;;;;;;10.32;6.00;;;5.50;99.90;;;;;;5011249;28;20491;-61
2022/01/24 04:34:28;;;;;;;11.27;6.10;;;5.50;99.90;;;;;;5023281;28;20423;-61
2022/01/24 04:36:53;;;;;;;12.90;7.97;;;5.50;99.90;;;;;;4995720;28;20045;-61
2022/01/24 04:39:20;;;;;;;12.90;7.38;;;5.40;99.90;;;;;;5013473;28;20053;-61
2022/01/24 04:41:49;;;;;;;11.73;7.38;;;5.40;99.90;;;;;;5012914;28;20079;-61
2022/01/24 04:47:27;;;;;;;10.82;7.10;;;5.50;99.90;;;;;;5006990;28;20125;-61
2022/01/24 04:52:52;;;;;;;12.30;7.72;;;5.40;99.90;;;;;;4992389;28;20041;-61
2022/01/24 04:55:18;;;;;;;10.75;7.28;;;5.40;99.90;;;;;;4994025;28;20050;-62
2022/01/24 04:57:46;;;;;;;12.43;7.18;;;5.40;99.90;;;;;;4992285;28;20053;-61
2022/01/24 05:00:18;;;;;;;13.98;7.53;;;5.40;99.90;;;;;;4993836;28;20054;-62
2022/01/24 05:02:44;;;;;;;11.10;6.70;;;5.40;99.90;;;;;;5006078;28;20045;-62
2022/01/24 05:05:15;;;;;;;12.27;7.57;;;5.80;99.90;;;;;;5012322;28;20045;-61
2022/01/24 05:07:41;;;;;;;10.50;6.80;;;5.40;99.90;;;;;;5012547;28;20482;-61
2022/01/24 05:10:23;;;;;;;14.18;8.00;;;5.40;99.90;;;;;;5012799;28;20052;-62
2022/01/24 05:23:36;;;;;;;11.70;7.20;;;5.30;99.90;;;;;;5010571;28;20054;-61
2022/01/24 05:26:04;;;;;;;12.60;8.20;;;5.40;99.90;;;;;;4992367;28;20074;-61
2022/01/24 05:28:31;;;;;;;11.48;7.88;;;5.40;99.90;;;;;;4993299;28;20538;-61
2022/01/24 05:30:58;;;;;;;11.45;7.45;;;5.40;99.90;;;;;;4992529;28;20544;-62
2022/01/24 05:33:25;;;;;;;14.93;8.65;;;5.40;99.90;;;;;;5003601;28;20073;-61
2022/01/24 05:35:51;;;;;;;11.77;8.25;;;5.30;99.90;;;;;;5029756;28;20049;-61
2022/01/24 05:38:17;;;;;;;13.85;7.53;;;5.40;99.90;;;;;;5012303;28;20060;-61
2022/01/24 05:40:44;;;;;;;13.18;8.20;;;5.40;99.90;;;;;;5028880;28;20041;-61
2022/01/24 05:43:10;;;;;;;12.93;8.55;;;5.40;99.90;;;;;;5012483;28;20171;-61
2022/01/24 05:45:36;;;;;;;13.75;9.23;;;5.40;99.90;;;;;;5010262;28;20112;-61
2022/01/24 05:48:02;;;;;;;15.07;8.55;;;5.40;99.90;;;;;;5011804;28;20048;-62
2022/01/24 05:50:28;;;;;;;13.45;9.02;;;5.40;99.90;;;;;;5012211;28;20125;-61
2022/01/24 05:52:55;;;;;;;13.18;8.38;;;5.40;99.90;;;;;;5011466;28;20081;-61
2022/01/24 05:55:20;;;;;;;12.65;8.50;;;5.20;99.90;;;;;;5009664;28;20048;-61
2022/01/24 05:57:46;;;;;;;11.90;8.40;;;5.40;99.90;;;;;;5009684;28;20049;-62
2022/01/24 06:00:13;;;;;;;15.25;10.15;;;5.30;99.90;;;;;;4991973;28;20115;-61
2022/01/24 06:02:39;;;;;;;15.70;10.65;;;5.40;99.90;;;;;;5002743;28;20057;-61
2022/01/24 06:05:06;;;;;;;13.90;8.48;;;5.40;99.90;;;;;;5012177;28;20056;-61
2022/01/24 06:07:31;;;;;;;12.77;8.98;;;5.40;99.90;;;;;;5011613;28;20046;-61
2022/01/24 06:09:57;;;;;;;13.40;8.57;;;5.40;99.90;;;;;;5029757;28;20048;-61
2022/01/24 06:12:23;;;;;;;16.73;9.88;;;6.10;99.90;;;;;;5012119;28;20371;-61
2022/01/24 06:14:49;;;;;;;15.43;9.73;;;5.40;99.90;;;;;;5011214;28;20051;-61
2022/01/24 06:17:17;;;;;;;13.98;9.05;;;5.20;99.90;;;;;;5029419;28;20474;-62
2022/01/24 06:19:43;;;;;;;15.75;10.98;;;5.40;99.90;;;;;;5011516;28;20070;-61
2022/01/24 06:22:09;;;;;;;14.60;10.75;;;5.40;99.90;;;;;;5029013;28;20409;-62
2022/01/24 06:24:34;;;;;;;12.77;8.38;;;5.40;99.90;;;;;;5029812;28;20124;-62
2022/01/24 06:27:00;;;;;;;13.00;9.48;;;5.60;99.90;;;;;;5011395;28;20073;-61
2022/01/24 06:29:25;;;;;;;14.88;9.52;;;5.40;99.90;;;;;;4993645;28;20080;-61
2022/01/24 06:31:51;;;;;;;13.70;8.73;;;5.40;99.90;;;;;;4991861;28;20103;-61
2022/01/24 06:34:17;;;;;;;13.93;9.18;;;5.40;99.90;;;;;;4992971;28;20115;-61
2022/01/24 06:36:42;;;;;;;15.82;10.30;;;5.40;99.90;;;;;;4991291;28;20042;-61
2022/01/24 06:39:10;;;;;;;14.65;9.73;;;6.20;99.90;;;;;;5010199;28;20054;-62
2022/01/24 06:41:36;;;;;;;13.13;8.18;;;5.40;99.90;;;;;;4992126;28;20053;-61
2022/01/24 06:44:03;;;;;;;14.00;9.02;;;5.40;99.90;;;;;;4974777;28;20049;-62
2022/01/24 06:46:29;;;;;;;15.63;10.52;;;5.40;99.90;;;;;;5009640;28;20037;-61
2022/01/24 06:48:55;;;;;;;11.90;9.43;;;5.30;99.90;;;;;;4990522;28;20530;-61
2022/01/24 06:51:22;;;;;;;16.13;10.30;;;5.40;99.90;;;;;;4992112;28;20049;-61
2022/01/24 06:53:48;;;;;;;17.60;12.00;;;5.40;99.90;;;;;;5009525;28;20050;-61
2022/01/24 06:56:15;;;;;;;18.48;10.88;;;5.40;99.90;;;;;;4975115;28;20140;-61
2022/01/24 06:58:41;;;;;;;15.50;10.50;;;5.40;99.90;;;;;;5007739;28;20065;-61
2022/01/24 07:01:07;;;;;;;16.85;11.60;;;5.40;99.90;;;;;;4992791;28;20082;-62
2022/01/24 07:03:33;;;;;;;15.95;11.32;;;5.50;99.90;;;;;;4991257;28;20054;-61
2022/01/24 07:06:00;;;;;;;18.00;11.27;;;5.40;99.90;;;;;;4991496;28;20050;-61
2022/01/24 07:08:25;;;;;;;17.85;11.50;;;5.40;99.90;;;;;;4992012;28;20050;-61
2022/01/24 07:10:51;;;;;;;18.48;12.18;;;5.40;99.90;;;;;;4990897;28;20042;-61
2022/01/24 07:13:19;;;;;;;21.27;12.80;;;5.40;99.90;;;;;;4995047;28;20489;-62
2022/01/24 07:15:51;;;;;;;14.80;10.10;;;5.40;99.90;;;;;;5012620;28;20046;-62
2022/01/24 07:20:56;;;;;;;16.38;10.35;;;5.40;99.90;;;;;;5014738;28;20057;-61
2022/01/24 07:23:21;;;;;;;15.82;10.63;;;5.40;99.90;;;;;;5014600;28;20506;-61
2022/01/24 07:25:47;;;;;;;17.15;12.35;;;5.30;99.90;;;;;;5013514;28;20049;-61
2022/01/24 07:28:14;;;;;;;17.48;11.75;;;5.40;99.90;;;;;;5019254;28;20072;-61
2022/01/24 07:30:40;;;;;;;15.68;9.80;;;5.40;99.90;;;;;;5015448;28;20049;-61
2022/01/24 07:33:06;;;;;;;18.95;12.60;;;5.40;99.90;;;;;;4989005;28;20050;-61
2022/01/24 07:35:32;;;;;;;16.65;11.15;;;5.10;99.90;;;;;;4990855;28;20041;-61
2022/01/24 07:37:58;;;;;;;18.73;10.57;;;5.50;99.90;;;;;;5006692;28;20457;-61
2022/01/24 07:40:24;;;;;;;18.15;12.43;;;5.40;99.90;;;;;;5003490;28;20506;-61
2022/01/24 07:45:19;;;;;;;15.00;10.23;;;5.40;99.90;;;;;;4993257;28;20091;-61
2022/01/24 07:47:48;;;;;;;17.42;11.60;;;5.40;99.90;;;;;;4998857;28;20041;-61
2022/01/24 07:50:21;;;;;;;19.70;10.52;;;5.40;99.90;;;;;;5011892;28;20058;-61
2022/01/24 07:52:47;;;;;;;18.88;11.10;;;5.40;99.90;;;;;;4991068;28;20132;-62
2022/01/24 07:55:13;;;;;;;18.00;11.40;;;5.40;99.90;;;;;;5077722;28;20167;-61
2022/01/24 07:57:39;;;;;;;23.67;11.27;;;5.40;99.90;;;;;;5083561;28;20040;-61
2022/01/24 08:00:07;;;;;;;18.17;11.60;;;5.40;99.90;;;;;;4982261;28;20414;-61
2022/01/24 08:02:33;;;;;;;16.90;11.70;;;5.40;99.90;;;;;;4988672;28;20054;-61
2022/01/24 08:04:59;;;;;;;19.73;12.23;;;5.40;99.90;;;;;;4980289;28;20046;-62
2022/01/24 08:07:25;;;;;;;19.95;11.55;;;5.40;99.90;;;;;;4990711;28;20061;-62
2022/01/24 08:09:51;;;;;;;17.77;11.20;;;5.40;99.90;;;;;;4988741;28;20478;-61
2022/01/24 08:12:18;;;;;;;17.30;11.27;;;5.40;99.90;;;;;;4996175;28;20057;-61
2022/01/24 08:14:44;;;;;;;23.88;13.60;;;5.40;99.90;;;;;;5007078;28;20151;-61
2022/01/24 08:17:10;;;;;;;19.33;12.38;;;5.40;99.90;;;;;;4991549;28;20085;-62
2022/01/24 08:19:36;;;;;;;18.33;12.40;;;5.40;99.90;;;;;;4991756;28;20057;-62
2022/01/24 08:22:02;;;;;;;18.77;12.35;;;5.40;99.90;;;;;;5008000;28;20038;-62
2022/01/24 08:24:28;;;;;;;16.48;11.35;;;5.40;99.90;;;;;;5009167;28;20045;-61
2022/01/24 08:26:54;;;;;;;22.83;13.30;;;5.40;99.90;;;;;;5076249;28;20046;-61
2022/01/24 08:29:20;;;;;;;19.00;10.57;;;5.40;99.90;;;;;;5000864;28;20075;-62
2022/01/24 08:31:46;;;;;;;22.40;12.23;;;5.40;99.90;;;;;;4991051;28;20042;-61
2022/01/24 08:34:12;;;;;;;21.77;12.48;;;5.40;99.90;;;;;;4994734;28;20054;-62
2022/01/24 08:36:37;;;;;;;18.63;12.43;;;5.40;99.90;;;;;;5007385;28;20060;-61
2022/01/24 08:39:08;;;;;;;23.30;13.80;;;5.50;99.90;;;;;;4998586;28;20445;-61
2022/01/24 08:41:49;;;;;;;20.45;12.18;;;5.40;99.90;;;;;;4992545;28;20056;-61
2022/01/24 08:44:34;;;;;;;19.55;12.05;;;5.40;99.90;;;;;;4983307;28;20383;-62
2022/01/24 08:47:00;;;;;;;20.25;12.30;;;5.50;99.90;;;;;;4992727;28;20490;-61
2022/01/24 08:49:27;;;;;;;20.83;13.13;;;5.50;99.90;;;;;;5017233;28;20517;-62
2022/01/24 08:51:53;;;;;;;19.65;12.00;;;5.50;99.90;;;;;;4990750;28;20050;-62
2022/01/24 08:54:19;;;;;;;17.38;11.38;;;5.30;99.90;;;;;;5059173;28;20133;-62
2022/01/24 08:57:13;;;;;;;22.33;13.48;;;5.50;99.90;;;;;;5057555;28;20521;-62
2022/01/24 08:59:40;;;;;;;19.88;12.27;;;5.50;99.90;;;;;;4981285;28;20056;-62
2022/01/24 09:02:06;;;;;;;20.77;12.75;;;5.50;99.90;;;;;;5025924;28;20061;-61
2022/01/24 09:04:33;;;;;;;22.98;14.68;;;5.50;99.90;;;;;;5005307;28;20047;-62
2022/01/24 09:07:03;;;;;;;21.27;13.35;;;5.50;99.90;;;;;;5071964;28;20822;-62
2022/01/24 09:09:29;;;;;;;20.95;13.30;;;5.50;99.90;;;;;;4993175;28;20049;-62
2022/01/24 09:11:55;;;;;;;21.23;12.35;;;5.50;99.90;;;;;;4992650;28;20037;-62
2022/01/24 09:14:21;;;;;;;22.90;13.85;;;5.50;99.90;;;;;;4993030;28;20102;-61
2022/01/24 09:16:47;;;;;;;21.00;12.90;;;5.50;99.90;;;;;;4999310;28;20049;-62
2022/01/24 09:19:12;;;;;;;21.27;13.13;;;5.50;99.90;;;;;;5058766;28;20043;-62
2022/01/24 09:21:38;;;;;;;23.55;14.15;;;5.60;99.90;;;;;;5094961;28;20044;-61
2022/01/24 09:24:05;;;;;;;24.40;15.00;;;5.60;99.90;;;;;;5102212;28;20038;-62
2022/01/24 09:26:31;;;;;;;20.65;13.32;;;5.60;99.90;;;;;;5075788;28;20046;-62
2022/01/24 09:28:57;;;;;;;21.30;14.30;;;5.50;99.90;;;;;;5009083;28;20405;-62
2022/01/24 09:31:23;;;;;;;19.60;12.07;;;5.60;99.90;;;;;;4990439;28;20050;-61
2022/01/24 09:33:50;;;;;;;24.42;12.82;;;5.60;99.90;;;;;;5010227;28;20087;-62
2022/01/24 09:36:16;;;;;;;24.40;14.38;;;5.60;99.90;;;;;;5010724;28;20038;-62
2022/01/24 09:38:42;;;;;;;23.33;13.00;;;5.70;99.90;;;;;;5007917;28;20114;-62
2022/01/24 09:41:10;;;;;;;28.40;15.02;;;5.60;99.90;;;;;;4973487;28;20564;-62
2022/01/24 09:43:36;;;;;;;25.35;14.73;;;6.10;99.90;;;;;;4990687;28;20562;-62
2022/01/24 09:46:02;;;;;;;23.17;15.02;;;5.60;99.90;;;;;;4990097;28;20050;-62
2022/01/24 09:48:29;;;;;;;25.55;14.35;;;5.60;99.90;;;;;;4973751;28;20077;-62
2022/01/24 09:50:54;;;;;;;23.58;14.50;;;5.50;99.90;;;;;;4984502;28;20042;-62
2022/01/24 09:53:22;;;;;;;23.10;14.40;;;5.60;99.90;;;;;;4992233;28;20518;-61
2022/01/24 09:55:48;;;;;;;21.05;13.48;;;5.70;99.90;;;;;;5010145;28;20045;-61
2022/01/24 09:58:15;;;;;;;23.17;14.75;;;5.70;99.90;;;;;;4992228;28;20438;-61
2022/01/24 10:00:41;;;;;;;21.38;13.13;;;5.70;99.90;;;;;;4991397;28;20194;-61
2022/01/24 10:03:12;;;;;;;23.95;13.80;;;5.70;99.90;;;;;;4992895;28;20121;-61
2022/01/24 10:05:39;;;;;;;23.27;14.02;;;5.70;99.90;;;;;;4991156;28;20617;-62
2022/01/24 10:08:15;;;;;;;21.73;13.07;;;4.70;99.90;;;;;;4992195;28;20050;-61
2022/01/24 10:10:51;;;;;;;21.80;13.20;;;5.80;99.90;;;;;;5014226;28;20034;-61
2022/01/24 10:19:03;;;;;;;24.75;14.60;;;5.80;99.90;;;;;;4984731;28;20043;-61
2022/01/24 10:21:36;;;;;;;22.75;14.63;;;5.50;99.90;;;;;;4989607;28;20107;-62
2022/01/24 10:24:01;;;;;;;25.20;14.32;;;5.80;99.90;;;;;;4991057;28;20034;-61
2022/01/24 10:26:27;;;;;;;31.52;14.98;;;6.20;99.90;;;;;;4977094;28;20095;-62
2022/01/24 10:28:53;;;;;;;28.40;16.27;;;5.40;99.90;;;;;;5010238;28;20045;-62
2022/01/24 10:31:24;;;;;;;26.13;16.45;;;5.80;99.90;;;;;;4984480;28;20038;-61
2022/01/24 10:33:53;;;;;;;23.58;14.55;;;6.10;99.90;;;;;;5046338;28;20046;-61
2022/01/24 10:36:36;;;;;;;25.08;14.70;;;5.70;99.90;;;;;;4991196;28;20049;-61
2022/01/24 10:44:57;;;;;;;31.00;15.40;;;5.90;99.90;;;;;;4990962;28;20503;-61
2022/01/24 10:47:32;;;;;;;24.98;15.15;;;5.80;99.90;;;;;;4989557;28;20042;-61
2022/01/24 10:50:00;;;;;;;23.05;14.88;;;5.90;99.90;;;;;;4959998;28;20060;-62
2022/01/24 10:52:29;;;;;;;30.15;15.93;;;5.90;99.90;;;;;;4994901;28;20203;-61
2022/01/24 10:55:24;;;;;;;28.67;17.17;;;5.90;99.90;;;;;;5011803;28;20391;-61
2022/01/24 10:57:57;;;;;;;26.00;14.73;;;5.90;99.90;;;;;;4992273;28;20049;-62
2022/01/24 11:00:26;;;;;;;26.35;13.95;;;6.00;99.90;;;;;;5011815;28;20099;-61
2022/01/24 11:02:53;;;;;;;22.75;14.60;;;6.10;99.90;;;;;;4977042;28;20107;-61
2022/01/24 11:05:23;;;;;;;24.77;15.30;;;6.20;99.90;;;;;;4973523;28;20034;-61
2022/01/24 11:08:04;;;;;;;27.08;17.05;;;6.20;99.90;;;;;;5077618;28;20052;-61
2022/01/24 11:10:59;;;;;;;30.90;18.23;;;6.20;99.90;;;;;;5076885;28;20046;-61
2022/01/24 11:13:30;;;;;;;31.92;18.15;;;6.20;99.90;;;;;;5078120;28;20553;-61
2022/01/24 11:16:00;;;;;;;26.95;16.92;;;6.00;99.90;;;;;;4975668;28;20387;-61
2022/01/24 11:18:26;;;;;;;25.80;15.85;;;6.30;99.90;;;;;;4991380;28;20049;-62
2022/01/24 11:21:01;;;;;;;28.85;18.08;;;6.10;99.90;;;;;;4982799;28;20042;-61
2022/01/24 11:23:30;;;;;;;;;;;6.20;99.90;;;;;;4975018;28;20038;-61
2022/01/24 11:26:01;;;;;;;23.38;14.45;;;6.20;99.90;;;;;;4979469;28;20007;-62
2022/01/24 11:28:27;;;;;;;27.00;15.65;;;6.30;99.90;;;;;;4995281;28;20041;-61
2022/01/24 11:31:17;;;;;;;26.15;14.75;;;6.30;99.90;;;;;;5011311;28;20042;-61
2022/01/24 11:33:52;;;;;;;23.90;14.95;;;6.20;99.90;;;;;;4994579;28;20046;-61
2022/01/24 11:36:19;;;;;;;24.52;16.13;;;6.50;99.90;;;;;;5009600;28;20049;-61
2022/01/24 11:38:45;;;;;;;23.05;15.75;;;6.10;99.90;;;;;;5010813;28;20061;-62
2022/01/24 11:41:24;;;;;;;24.25;16.00;;;6.10;99.90;;;;;;4994868;28;20061;-61
2022/01/24 11:43:59;;;;;;;25.80;15.27;;;5.90;99.90;;;;;;4994266;28;20556;-61
2022/01/24 11:46:45;;;;;;;24.40;15.15;;;6.10;99.90;;;;;;4993739;28;20044;-61
2022/01/24 11:49:35;;;;;;;28.73;17.92;;;6.20;99.90;;;;;;4993860;28;20128;-61
2022/01/24 11:52:13;;;;;;;22.63;15.00;;;6.10;99.90;;;;;;4993459;28;20042;-61
2022/01/24 11:57:27;;;;;;;27.05;17.80;;;6.20;99.90;;;;;;4994109;28;20052;-61
2022/01/24 12:00:19;;;;;;;27.23;15.60;;;6.30;99.90;;;;;;4992764;28;20475;-61
2022/01/24 12:02:50;;;;;;;27.30;17.00;;;6.20;99.90;;;;;;4977157;28;20526;-61
2022/01/24 12:05:23;;;;;;;28.20;17.83;;;6.40;99.90;;;;;;4987833;28;20034;-61
2022/01/24 12:07:58;;;;;;;25.60;16.85;;;6.40;99.90;;;;;;5011234;28;20049;-61
2022/01/24 12:10:33;;;;;;;25.90;16.30;;;6.30;99.90;;;;;;4998780;28;20038;-62
2022/01/24 12:13:02;;;;;;;;;;;;;;;;;;5045630;28;20062;-62
2022/01/24 12:15:37;;;;;;;28.60;18.02;;;;;;;;;;5080368;28;20296;-61
2022/01/24 12:18:03;;;;;;;;;;;;;;;;;;4994045;28;20482;-62
2022/01/24 12:20:34;;;;;;;24.42;15.40;;;;;;;;;;4982268;28;19917;-63
2022/01/24 12:23:20;;;;;;;29.02;18.92;;;;;;;;;;5019384;28;20043;-62
2022/01/24 12:25:57;;;;;;;25.45;16.10;;;;;;;;;;5000408;28;20046;-62
2022/01/24 12:28:41;;;;;;;30.13;18.90;;;;;;;;;;5002075;28;20049;-62
2022/01/24 12:31:07;;;;;;;27.42;17.75;;;;;;;;;;5005299;28;20038;-62
2022/01/24 12:33:34;;;;;;;32.70;20.75;;;;;;;;;;5074957;28;20041;-62
2022/01/24 12:36:01;;;;;;;31.02;17.55;;;;;;;;;;5060011;28;20042;-62
2022/01/24 12:38:39;;;;;;;26.63;17.08;;;;;;;;;;4972015;28;20050;-62
2022/01/24 12:41:26;;;;;;;32.97;19.50;;;;;;;;;;4989178;28;20050;-62
2022/01/24 12:44:09;;;;;;;33.58;19.58;;;;;;;;;;5028352;28;20399;-62
2022/01/24 12:46:35;;;;;;;32.08;18.65;;;;;;;;;;5055297;28;20050;-62
2022/01/24 12:49:03;;;;;;;28.10;17.52;;;;;;;;;;4989891;28;20139;-62
2022/01/24 12:51:31;;;;;;;30.92;18.15;;;;;;;;;;4974912;28;20251;-62
2022/01/24 12:53:57;;;;;;;31.08;19.02;;;;;;;;;;4988135;28;20051;-62
2022/01/24 12:56:28;;;;;;;30.92;18.63;;;;;;;;;;4962484;28;20049;-62
2022/01/24 12:58:54;;;;;;;31.45;20.70;;;;;;;;;;4988118;28;20049;-62
2022/01/24 13:01:29;;;;;;;29.35;19.90;;;;;;;;;;4990180;28;20505;-62
2022/01/24 13:03:57;;;;;;;;;;;;;;;;;;5003269;28;20399;-62
2022/01/24 13:06:24;;;;;;;30.92;19.58;;;;;;;;;;5008754;28;20360;-62
2022/01/24 13:08:53;;;;;;;32.47;20.52;;;;;;;;;;5075241;28;20175;-62
2022/01/24 13:11:19;;;;;;;34.88;22.20;;;6.70;99.90;;;;;;5019158;28;20053;-61
2022/01/24 13:14:07;;;;;;;36.22;22.08;;;;;;;;;;4987573;28;20483;-61
2022/01/24 13:22:42;;;;;;;37.65;21.13;;;;;;;;;;4971855;28;20372;-61
2022/01/24 13:25:11;;;;;;;33.47;22.75;;;;;;;;;;4972142;28;20082;-61
2022/01/24 13:27:44;;;;;;;32.72;21.08;;;;;;;;;;4993305;28;20132;-62
2022/01/24 13:30:35;;;;;;;38.20;25.20;;;6.00;99.90;;;;;;5064264;28;20069;-61
2022/01/24 13:33:09;;;;;;;36.38;22.60;;;6.10;99.90;;;;;;4972619;28;20077;-61
2022/01/24 13:35:37;;;;;;;34.08;22.20;;;6.00;99.90;;;;;;4995919;28;20564;-61
2022/01/24 13:38:04;;;;;;;38.58;22.00;;;6.20;99.90;;;;;;4999623;28;20539;-63
2022/01/24 13:41:01;;;;;;;41.67;25.15;;;5.70;99.90;;;;;;4986149;28;20046;-61
2022/01/24 13:43:45;;;;;;;36.45;22.67;;;5.80;99.90;;;;;;4989838;28;20884;-61
2022/01/24 13:46:14;;;;;;;38.67;24.20;;;5.90;99.90;;;;;;5005182;28;20037;-61
2022/01/24 13:48:47;;;;;;;37.78;22.55;;;5.90;99.90;;;;;;4970793;28;20045;-61
2022/01/24 13:51:51;;;;;;;36.08;22.48;;;5.90;99.90;;;;;;5000295;28;20058;-61
2022/01/24 13:54:18;;;;;;;39.13;22.92;;;5.90;99.90;;;;;;4997625;28;20050;-61
2022/01/24 13:56:51;;;;;;;38.05;23.30;;;5.80;99.90;;;;;;4974155;28;20042;-60
2022/01/24 13:59:43;;;;;;;38.38;23.88;;;5.90;99.90;;;;;;5074455;28;20054;-61
2022/01/24 14:02:15;;;;;;;36.55;22.63;;;5.90;99.90;;;;;;4979108;28;20049;-61
2022/01/24 14:04:52;;;;;;;35.60;23.45;;;5.90;99.90;;;;;;4994948;28;20467;-61
2022/01/24 14:07:30;;;;;;;33.67;21.25;;;5.90;99.90;;;;;;4992086;28;20057;-61
2022/01/24 14:09:57;;;;;;;36.17;21.92;;;5.90;99.90;;;;;;4990598;28;20042;-61
2022/01/24 14:12:43;;;;;;;35.70;23.65;;;5.70;99.90;;;;;;4991373;28;20056;-61
2022/01/24 14:15:20;;;;;;;39.22;24.45;;;5.90;99.90;;;;;;4972937;28;20129;-61
2022/01/24 14:18:23;;;;;;;39.05;25.02;;;5.60;99.90;;;;;;4978044;28;20382;-61
2022/01/24 14:20:52;;;;;;;40.67;25.85;;;5.90;99.90;;;;;;4971686;28;20111;-61
2022/01/24 14:23:43;;;;;;;39.55;24.85;;;5.80;99.90;;;;;;4990274;28;20099;-61
2022/01/24 14:26:16;;;;;;;36.92;24.45;;;5.80;99.90;;;;;;4972117;28;20046;-61
2022/01/24 14:28:43;;;;;;;42.58;26.33;;;5.80;99.90;;;;;;4956109;28;20055;-62
2022/01/24 14:31:14;;;;;;;39.70;26.13;;;5.70;99.90;;;;;;4990121;28;20433;-61
2022/01/24 14:33:44;;;;;;;41.78;27.40;;;5.80;99.90;;;;;;4971518;28;20054;-61
2022/01/24 14:36:16;;;;;;;37.80;24.75;;;5.80;99.90;;;;;;4972971;28;20108;-61
2022/01/24 14:38:43;;;;;;;40.20;26.15;;;5.80;99.90;;;;;;4972245;28;20540;-61
2022/01/24 14:41:15;;;;;;;41.47;25.83;;;5.80;99.90;;;;;;4972253;28;20065;-61
2022/01/24 14:46:39;;;;;;;41.85;27.27;;;5.80;99.90;;;;;;4972618;28;20054;-61
2022/01/24 14:49:06;;;;;;;40.97;26.73;;;5.80;99.90;;;;;;4989116;28;20407;-61
2022/01/24 14:51:34;;;;;;;41.95;27.60;;;5.80;99.90;;;;;;4972925;28;20449;-62
2022/01/24 14:54:03;;;;;;;41.38;26.45;;;5.80;99.90;;;;;;4989376;28;20042;-61
2022/01/24 14:56:29;;;;;;;44.33;29.23;;;5.80;99.90;;;;;;4989894;28;20038;-61
2022/01/24 14:58:55;;;;;;;44.10;26.65;;;5.70;99.90;;;;;;4972059;28;20042;-61
2022/01/24 15:01:21;;;;;;;40.75;28.02;;;5.80;99.90;;;;;;4971689;28;20125;-61
2022/01/24 15:03:49;;;;;;;45.40;27.40;;;5.70;99.90;;;;;;4971868;28;20158;-61
2022/01/24 15:06:16;;;;;;;47.50;29.58;;;5.50;99.90;;;;;;4972538;28;20046;-61